sensor_id;sensor_type;location;lat;lon;timestamp;P1;durP1;ratioP1;P2;durP2;ratioP2
18732;SDS011;9495;51.210;2.934;2022-08-16T00:01:37;38.38;;;29.10;;
18732;SDS011;9495;51.210;2.934;2022-08-16T00:04:07;34.67;;;29.50;;
18732;SDS011;9495;51.210;2.934;2022-08-16T00:06:36;36.50;;;28.95;;
18732;SDS011;9495;51.210;2.934;2022-08-16T00:09:05;36.30;;;29.25;;
18732;SDS011;9495;51.210;2.934;2022-08-16T00:11:38;35.17;;;29.52;;
18732;SDS011;9495;51.210;2.934;2022-08-16T00:14:08;34.50;;;30.67;;
18732;SDS011;9495;51.210;2.934;2022-08-16T00:16:39;36.60;;;30.58;;
18732;SDS011;9495;51.210;2.934;2022-08-16T00:19:29;38.42;;;29.52;;
18732;SDS011;9495;51.210;2.934;2022-08-16T00:22:07;38.58;;;30.05;;
18732;SDS011;9495;51.210;2.934;2022-08-16T00:24:41;37.65;;;30.17;;
18732;SDS011;9495;51.210;2.934;2022-08-16T00:27:13;37.53;;;30.33;;
18732;SDS011;9495;51.210;2.934;2022-08-16T00:29:42;44.83;;;32.15;;
18732;SDS011;9495;51.210;2.934;2022-08-16T00:32:11;37.67;;;32.20;;
18732;SDS011;9495;51.210;2.934;2022-08-16T00:34:43;39.90;;;31.95;;
18732;SDS011;9495;51.210;2.934;2022-08-16T00:37:19;37.60;;;30.10;;
18732;SDS011;9495;51.210;2.934;2022-08-16T00:39:50;40.17;;;30.77;;
18732;SDS011;9495;51.210;2.934;2022-08-16T00:42:25;38.10;;;30.88;;
18732;SDS011;9495;51.210;2.934;2022-08-16T00:45:01;38.47;;;31.92;;
18732;SDS011;9495;51.210;2.934;2022-08-16T00:47:36;42.20;;;32.03;;
18732;SDS011;9495;51.210;2.934;2022-08-16T00:50:14;44.63;;;32.38;;
18732;SDS011;9495;51.210;2.934;2022-08-16T00:52:44;39.60;;;31.52;;
18732;SDS011;9495;51.210;2.934;2022-08-16T00:55:17;43.45;;;32.65;;
18732;SDS011;9495;51.210;2.934;2022-08-16T00:57:49;36.60;;;30.90;;
18732;SDS011;9495;51.210;2.934;2022-08-16T01:00:26;43.00;;;32.20;;
18732;SDS011;9495;51.210;2.934;2022-08-16T01:02:56;42.15;;;33.10;;
18732;SDS011;9495;51.210;2.934;2022-08-16T01:05:26;44.42;;;34.80;;
18732;SDS011;9495;51.210;2.934;2022-08-16T01:07:58;48.92;;;34.55;;
18732;SDS011;9495;51.210;2.934;2022-08-16T01:10:47;42.42;;;33.38;;
18732;SDS011;9495;51.210;2.934;2022-08-16T01:13:20;43.95;;;32.90;;
18732;SDS011;9495;51.210;2.934;2022-08-16T01:15:53;41.22;;;33.08;;
18732;SDS011;9495;51.210;2.934;2022-08-16T01:18:24;41.78;;;34.45;;
18732;SDS011;9495;51.210;2.934;2022-08-16T01:21:11;46.70;;;34.28;;
18732;SDS011;9495;51.210;2.934;2022-08-16T01:27:08;44.28;;;35.97;;
18732;SDS011;9495;51.210;2.934;2022-08-16T01:29:41;48.17;;;34.72;;
18732;SDS011;9495;51.210;2.934;2022-08-16T01:32:23;44.42;;;34.42;;
18732;SDS011;9495;51.210;2.934;2022-08-16T01:35:00;45.50;;;35.42;;
18732;SDS011;9495;51.210;2.934;2022-08-16T01:37:37;45.92;;;35.55;;
18732;SDS011;9495;51.210;2.934;2022-08-16T01:40:10;46.88;;;35.60;;
18732;SDS011;9495;51.210;2.934;2022-08-16T01:42:41;48.67;;;36.90;;
18732;SDS011;9495;51.210;2.934;2022-08-16T01:45:13;43.95;;;34.67;;
18732;SDS011;9495;51.210;2.934;2022-08-16T01:47:45;42.95;;;36.05;;
18732;SDS011;9495;51.210;2.934;2022-08-16T01:50:17;51.22;;;37.78;;
18732;SDS011;9495;51.210;2.934;2022-08-16T01:53:08;45.97;;;36.88;;
18732;SDS011;9495;51.210;2.934;2022-08-16T01:55:38;48.53;;;38.72;;
18732;SDS011;9495;51.210;2.934;2022-08-16T01:58:19;48.90;;;38.13;;
18732;SDS011;9495;51.210;2.934;2022-08-16T02:00:49;45.60;;;37.25;;
18732;SDS011;9495;51.210;2.934;2022-08-16T02:03:20;52.53;;;37.72;;
18732;SDS011;9495;51.210;2.934;2022-08-16T02:05:49;46.33;;;38.05;;
18732;SDS011;9495;51.210;2.934;2022-08-16T02:08:18;47.50;;;36.92;;
18732;SDS011;9495;51.210;2.934;2022-08-16T02:11:01;52.80;;;37.38;;
18732;SDS011;9495;51.210;2.934;2022-08-16T02:13:30;47.03;;;37.78;;
18732;SDS011;9495;51.210;2.934;2022-08-16T02:15:59;48.72;;;37.95;;
18732;SDS011;9495;51.210;2.934;2022-08-16T02:18:27;52.47;;;39.97;;
18732;SDS011;9495;51.210;2.934;2022-08-16T02:20:55;47.45;;;36.00;;
18732;SDS011;9495;51.210;2.934;2022-08-16T02:23:25;50.20;;;38.30;;
18732;SDS011;9495;51.210;2.934;2022-08-16T02:25:55;48.40;;;38.58;;
18732;SDS011;9495;51.210;2.934;2022-08-16T02:28:26;50.80;;;37.42;;
18732;SDS011;9495;51.210;2.934;2022-08-16T02:30:57;47.08;;;35.95;;
18732;SDS011;9495;51.210;2.934;2022-08-16T02:33:28;42.30;;;35.75;;
18732;SDS011;9495;51.210;2.934;2022-08-16T02:36:09;42.55;;;34.30;;
18732;SDS011;9495;51.210;2.934;2022-08-16T02:38:59;44.20;;;36.33;;
18732;SDS011;9495;51.210;2.934;2022-08-16T02:41:28;46.15;;;36.10;;
18732;SDS011;9495;51.210;2.934;2022-08-16T02:44:04;43.28;;;34.22;;
18732;SDS011;9495;51.210;2.934;2022-08-16T02:46:33;42.03;;;33.30;;
18732;SDS011;9495;51.210;2.934;2022-08-16T02:49:03;41.47;;;33.75;;
18732;SDS011;9495;51.210;2.934;2022-08-16T02:51:34;38.15;;;31.95;;
18732;SDS011;9495;51.210;2.934;2022-08-16T02:54:06;36.85;;;31.30;;
18732;SDS011;9495;51.210;2.934;2022-08-16T02:56:35;42.20;;;32.22;;
18732;SDS011;9495;51.210;2.934;2022-08-16T02:59:06;40.22;;;33.08;;
18732;SDS011;9495;51.210;2.934;2022-08-16T03:01:39;42.83;;;31.73;;
18732;SDS011;9495;51.210;2.934;2022-08-16T03:04:08;40.22;;;30.98;;
18732;SDS011;9495;51.210;2.934;2022-08-16T03:06:57;37.85;;;31.60;;
18732;SDS011;9495;51.210;2.934;2022-08-16T03:09:25;38.92;;;31.92;;
18732;SDS011;9495;51.210;2.934;2022-08-16T03:11:55;39.10;;;31.50;;
18732;SDS011;9495;51.210;2.934;2022-08-16T03:14:27;40.03;;;31.90;;
18732;SDS011;9495;51.210;2.934;2022-08-16T03:16:56;38.75;;;32.47;;
18732;SDS011;9495;51.210;2.934;2022-08-16T03:19:27;37.75;;;31.95;;
18732;SDS011;9495;51.210;2.934;2022-08-16T03:22:17;39.33;;;32.17;;
18732;SDS011;9495;51.210;2.934;2022-08-16T03:24:55;43.83;;;34.05;;
18732;SDS011;9495;51.210;2.934;2022-08-16T03:27:26;43.20;;;34.08;;
18732;SDS011;9495;51.210;2.934;2022-08-16T03:29:58;43.72;;;34.90;;
18732;SDS011;9495;51.210;2.934;2022-08-16T03:32:42;41.60;;;33.90;;
18732;SDS011;9495;51.210;2.934;2022-08-16T03:35:13;44.25;;;34.72;;
18732;SDS011;9495;51.210;2.934;2022-08-16T03:37:43;45.25;;;35.38;;
18732;SDS011;9495;51.210;2.934;2022-08-16T03:40:29;43.30;;;35.00;;
18732;SDS011;9495;51.210;2.934;2022-08-16T03:43:00;46.13;;;36.95;;
18732;SDS011;9495;51.210;2.934;2022-08-16T03:45:48;46.30;;;35.83;;
18732;SDS011;9495;51.210;2.934;2022-08-16T03:48:18;45.33;;;34.58;;
18732;SDS011;9495;51.210;2.934;2022-08-16T03:51:03;50.40;;;36.13;;
18732;SDS011;9495;51.210;2.934;2022-08-16T03:53:34;47.42;;;37.10;;
18732;SDS011;9495;51.210;2.934;2022-08-16T03:56:03;44.13;;;35.97;;
18732;SDS011;9495;51.210;2.934;2022-08-16T03:58:43;50.40;;;36.72;;
18732;SDS011;9495;51.210;2.934;2022-08-16T04:01:17;46.58;;;36.22;;
18732;SDS011;9495;51.210;2.934;2022-08-16T04:03:47;46.78;;;36.65;;
18732;SDS011;9495;51.210;2.934;2022-08-16T04:06:18;49.85;;;38.47;;
18732;SDS011;9495;51.210;2.934;2022-08-16T04:08:47;49.80;;;36.60;;
18732;SDS011;9495;51.210;2.934;2022-08-16T04:11:16;47.70;;;37.58;;
18732;SDS011;9495;51.210;2.934;2022-08-16T04:13:49;48.15;;;37.78;;
18732;SDS011;9495;51.210;2.934;2022-08-16T04:16:33;47.33;;;37.63;;
18732;SDS011;9495;51.210;2.934;2022-08-16T04:19:02;49.88;;;37.97;;
18732;SDS011;9495;51.210;2.934;2022-08-16T04:21:30;50.67;;;38.65;;
18732;SDS011;9495;51.210;2.934;2022-08-16T04:24:00;47.10;;;36.08;;
18732;SDS011;9495;51.210;2.934;2022-08-16T04:26:33;50.00;;;37.75;;
18732;SDS011;9495;51.210;2.934;2022-08-16T04:29:01;45.80;;;36.17;;
18732;SDS011;9495;51.210;2.934;2022-08-16T04:31:48;47.15;;;37.63;;
18732;SDS011;9495;51.210;2.934;2022-08-16T04:34:23;50.83;;;38.50;;
18732;SDS011;9495;51.210;2.934;2022-08-16T04:36:53;44.90;;;35.28;;
18732;SDS011;9495;51.210;2.934;2022-08-16T04:39:27;45.55;;;38.17;;
18732;SDS011;9495;51.210;2.934;2022-08-16T04:42:12;51.67;;;36.35;;
18732;SDS011;9495;51.210;2.934;2022-08-16T04:44:41;44.17;;;35.35;;
18732;SDS011;9495;51.210;2.934;2022-08-16T04:47:25;48.42;;;36.45;;
18732;SDS011;9495;51.210;2.934;2022-08-16T04:50:00;42.17;;;34.65;;
18732;SDS011;9495;51.210;2.934;2022-08-16T04:52:30;47.80;;;35.33;;
18732;SDS011;9495;51.210;2.934;2022-08-16T04:55:03;47.00;;;37.50;;
18732;SDS011;9495;51.210;2.934;2022-08-16T04:57:33;48.63;;;37.30;;
18732;SDS011;9495;51.210;2.934;2022-08-16T05:00:03;49.58;;;38.58;;
18732;SDS011;9495;51.210;2.934;2022-08-16T05:02:56;53.03;;;38.72;;
18732;SDS011;9495;51.210;2.934;2022-08-16T05:05:28;53.22;;;38.13;;
18732;SDS011;9495;51.210;2.934;2022-08-16T05:07:58;46.15;;;38.17;;
18732;SDS011;9495;51.210;2.934;2022-08-16T05:10:46;51.03;;;38.65;;
18732;SDS011;9495;51.210;2.934;2022-08-16T05:13:15;49.55;;;37.20;;
18732;SDS011;9495;51.210;2.934;2022-08-16T05:15:44;51.88;;;39.65;;
18732;SDS011;9495;51.210;2.934;2022-08-16T05:18:16;50.65;;;39.15;;
18732;SDS011;9495;51.210;2.934;2022-08-16T05:20:52;53.55;;;39.95;;
18732;SDS011;9495;51.210;2.934;2022-08-16T05:23:34;51.83;;;39.50;;
18732;SDS011;9495;51.210;2.934;2022-08-16T05:26:03;50.72;;;39.97;;
18732;SDS011;9495;51.210;2.934;2022-08-16T05:28:45;56.33;;;41.60;;
18732;SDS011;9495;51.210;2.934;2022-08-16T05:31:21;51.80;;;41.08;;
18732;SDS011;9495;51.210;2.934;2022-08-16T05:33:56;52.05;;;41.80;;
18732;SDS011;9495;51.210;2.934;2022-08-16T05:36:26;51.83;;;40.15;;
18732;SDS011;9495;51.210;2.934;2022-08-16T05:39:02;53.25;;;41.20;;
18732;SDS011;9495;51.210;2.934;2022-08-16T05:41:33;55.35;;;40.90;;
18732;SDS011;9495;51.210;2.934;2022-08-16T05:44:10;50.83;;;41.45;;
18732;SDS011;9495;51.210;2.934;2022-08-16T05:46:50;50.15;;;40.17;;
18732;SDS011;9495;51.210;2.934;2022-08-16T05:49:21;52.72;;;40.45;;
18732;SDS011;9495;51.210;2.934;2022-08-16T05:51:50;51.53;;;41.00;;
18732;SDS011;9495;51.210;2.934;2022-08-16T05:54:21;52.85;;;41.13;;
18732;SDS011;9495;51.210;2.934;2022-08-16T05:56:51;56.70;;;41.50;;
18732;SDS011;9495;51.210;2.934;2022-08-16T05:59:21;50.90;;;41.28;;
18732;SDS011;9495;51.210;2.934;2022-08-16T06:01:52;54.58;;;38.85;;
18732;SDS011;9495;51.210;2.934;2022-08-16T06:04:23;51.33;;;39.70;;
18732;SDS011;9495;51.210;2.934;2022-08-16T06:07:02;58.60;;;39.65;;
18732;SDS011;9495;51.210;2.934;2022-08-16T06:09:35;54.15;;;40.60;;
18732;SDS011;9495;51.210;2.934;2022-08-16T06:12:10;53.63;;;41.90;;
18732;SDS011;9495;51.210;2.934;2022-08-16T06:14:54;53.72;;;41.83;;
18732;SDS011;9495;51.210;2.934;2022-08-16T06:17:25;46.25;;;38.92;;
18732;SDS011;9495;51.210;2.934;2022-08-16T06:20:12;49.28;;;40.75;;
18732;SDS011;9495;51.210;2.934;2022-08-16T06:22:50;46.83;;;40.58;;
18732;SDS011;9495;51.210;2.934;2022-08-16T06:25:29;55.28;;;42.28;;
18732;SDS011;9495;51.210;2.934;2022-08-16T06:28:05;55.30;;;41.47;;
18732;SDS011;9495;51.210;2.934;2022-08-16T06:30:42;54.72;;;41.55;;
18732;SDS011;9495;51.210;2.934;2022-08-16T06:33:12;53.85;;;41.72;;
18732;SDS011;9495;51.210;2.934;2022-08-16T06:35:49;52.10;;;41.88;;
18732;SDS011;9495;51.210;2.934;2022-08-16T06:38:24;51.10;;;42.53;;
18732;SDS011;9495;51.210;2.934;2022-08-16T06:40:59;56.70;;;43.05;;
18732;SDS011;9495;51.210;2.934;2022-08-16T06:43:29;50.83;;;42.30;;
18732;SDS011;9495;51.210;2.934;2022-08-16T06:45:59;51.75;;;41.58;;
18732;SDS011;9495;51.210;2.934;2022-08-16T06:48:29;51.15;;;40.95;;
18732;SDS011;9495;51.210;2.934;2022-08-16T06:51:01;49.58;;;38.80;;
18732;SDS011;9495;51.210;2.934;2022-08-16T06:53:31;44.72;;;34.50;;
18732;SDS011;9495;51.210;2.934;2022-08-16T06:56:03;38.72;;;32.30;;
18732;SDS011;9495;51.210;2.934;2022-08-16T06:58:48;38.92;;;30.00;;
18732;SDS011;9495;51.210;2.934;2022-08-16T07:01:17;34.53;;;28.35;;
18732;SDS011;9495;51.210;2.934;2022-08-16T07:04:06;33.13;;;24.95;;
18732;SDS011;9495;51.210;2.934;2022-08-16T07:06:38;32.78;;;24.30;;
18732;SDS011;9495;51.210;2.934;2022-08-16T07:09:09;27.80;;;23.33;;
18732;SDS011;9495;51.210;2.934;2022-08-16T07:11:37;34.47;;;25.65;;
18732;SDS011;9495;51.210;2.934;2022-08-16T07:14:17;36.72;;;25.52;;
18732;SDS011;9495;51.210;2.934;2022-08-16T07:16:51;31.85;;;25.80;;
18732;SDS011;9495;51.210;2.934;2022-08-16T07:19:23;33.53;;;24.52;;
18732;SDS011;9495;51.210;2.934;2022-08-16T07:22:14;25.77;;;22.48;;
18732;SDS011;9495;51.210;2.934;2022-08-16T07:25:03;26.38;;;22.10;;
18732;SDS011;9495;51.210;2.934;2022-08-16T07:27:35;31.98;;;24.08;;
18732;SDS011;9495;51.210;2.934;2022-08-16T07:30:05;31.95;;;23.80;;
18732;SDS011;9495;51.210;2.934;2022-08-16T07:32:54;31.30;;;23.17;;
18732;SDS011;9495;51.210;2.934;2022-08-16T07:35:22;28.73;;;22.10;;
18732;SDS011;9495;51.210;2.934;2022-08-16T07:37:53;29.13;;;23.60;;
18732;SDS011;9495;51.210;2.934;2022-08-16T07:40:21;35.03;;;24.17;;
18732;SDS011;9495;51.210;2.934;2022-08-16T07:43:11;31.73;;;22.42;;
18732;SDS011;9495;51.210;2.934;2022-08-16T07:45:39;28.15;;;23.85;;
18732;SDS011;9495;51.210;2.934;2022-08-16T07:48:08;28.02;;;22.60;;
18732;SDS011;9495;51.210;2.934;2022-08-16T07:50:38;24.75;;;22.08;;
18732;SDS011;9495;51.210;2.934;2022-08-16T07:53:26;28.73;;;22.40;;
18732;SDS011;9495;51.210;2.934;2022-08-16T07:55:55;31.50;;;23.55;;
18732;SDS011;9495;51.210;2.934;2022-08-16T07:58:25;26.60;;;21.63;;
18732;SDS011;9495;51.210;2.934;2022-08-16T08:01:00;25.42;;;21.17;;
18732;SDS011;9495;51.210;2.934;2022-08-16T08:03:36;26.02;;;19.60;;
18732;SDS011;9495;51.210;2.934;2022-08-16T08:06:10;29.35;;;22.75;;
18732;SDS011;9495;51.210;2.934;2022-08-16T08:08:41;26.25;;;22.35;;
18732;SDS011;9495;51.210;2.934;2022-08-16T08:11:17;24.90;;;22.23;;
18732;SDS011;9495;51.210;2.934;2022-08-16T08:13:49;25.63;;;21.55;;
18732;SDS011;9495;51.210;2.934;2022-08-16T08:16:19;31.60;;;22.50;;
18732;SDS011;9495;51.210;2.934;2022-08-16T08:18:56;28.92;;;22.58;;
18732;SDS011;9495;51.210;2.934;2022-08-16T08:21:27;24.23;;;21.02;;
18732;SDS011;9495;51.210;2.934;2022-08-16T08:24:18;25.23;;;21.25;;
18732;SDS011;9495;51.210;2.934;2022-08-16T08:26:57;23.83;;;19.27;;
18732;SDS011;9495;51.210;2.934;2022-08-16T08:29:27;27.00;;;21.20;;
18732;SDS011;9495;51.210;2.934;2022-08-16T08:32:03;24.95;;;21.17;;
18732;SDS011;9495;51.210;2.934;2022-08-16T08:34:53;25.13;;;20.70;;
18732;SDS011;9495;51.210;2.934;2022-08-16T08:37:28;26.30;;;21.08;;
18732;SDS011;9495;51.210;2.934;2022-08-16T08:40:18;24.20;;;21.23;;
18732;SDS011;9495;51.210;2.934;2022-08-16T08:42:52;26.05;;;21.52;;
18732;SDS011;9495;51.210;2.934;2022-08-16T08:45:26;26.23;;;19.33;;
18732;SDS011;9495;51.210;2.934;2022-08-16T08:48:15;22.13;;;18.55;;
18732;SDS011;9495;51.210;2.934;2022-08-16T08:50:59;23.98;;;19.02;;
18732;SDS011;9495;51.210;2.934;2022-08-16T08:53:28;21.52;;;17.33;;
18732;SDS011;9495;51.210;2.934;2022-08-16T08:56:00;17.90;;;15.45;;
18732;SDS011;9495;51.210;2.934;2022-08-16T08:58:50;17.75;;;15.95;;
18732;SDS011;9495;51.210;2.934;2022-08-16T09:01:26;19.60;;;15.50;;
18732;SDS011;9495;51.210;2.934;2022-08-16T09:04:02;20.98;;;17.42;;
18732;SDS011;9495;51.210;2.934;2022-08-16T09:06:32;20.77;;;15.30;;
18732;SDS011;9495;51.210;2.934;2022-08-16T09:09:00;19.25;;;14.95;;
18732;SDS011;9495;51.210;2.934;2022-08-16T09:11:32;21.13;;;15.55;;
18732;SDS011;9495;51.210;2.934;2022-08-16T09:14:06;18.85;;;14.57;;
18732;SDS011;9495;51.210;2.934;2022-08-16T09:16:50;17.67;;;13.68;;
18732;SDS011;9495;51.210;2.934;2022-08-16T09:19:29;15.50;;;12.48;;
18732;SDS011;9495;51.210;2.934;2022-08-16T09:21:59;19.95;;;13.80;;
18732;SDS011;9495;51.210;2.934;2022-08-16T09:24:29;14.70;;;13.30;;
18732;SDS011;9495;51.210;2.934;2022-08-16T09:27:20;19.98;;;13.05;;
18732;SDS011;9495;51.210;2.934;2022-08-16T09:29:51;17.38;;;12.95;;
18732;SDS011;9495;51.210;2.934;2022-08-16T09:32:26;16.10;;;14.15;;
18732;SDS011;9495;51.210;2.934;2022-08-16T09:34:56;15.00;;;12.73;;
18732;SDS011;9495;51.210;2.934;2022-08-16T09:37:25;15.80;;;12.50;;
18732;SDS011;9495;51.210;2.934;2022-08-16T09:40:02;18.70;;;13.05;;
18732;SDS011;9495;51.210;2.934;2022-08-16T09:42:53;14.40;;;12.90;;
18732;SDS011;9495;51.210;2.934;2022-08-16T09:45:25;14.48;;;12.40;;
18732;SDS011;9495;51.210;2.934;2022-08-16T09:47:56;17.90;;;12.30;;
18732;SDS011;9495;51.210;2.934;2022-08-16T09:50:25;14.93;;;11.45;;
18732;SDS011;9495;51.210;2.934;2022-08-16T09:53:06;16.45;;;11.77;;
18732;SDS011;9495;51.210;2.934;2022-08-16T09:55:42;15.25;;;11.65;;
18732;SDS011;9495;51.210;2.934;2022-08-16T09:58:16;16.73;;;11.82;;
18732;SDS011;9495;51.210;2.934;2022-08-16T10:01:05;14.45;;;12.48;;
18732;SDS011;9495;51.210;2.934;2022-08-16T10:03:36;18.92;;;13.50;;
18732;SDS011;9495;51.210;2.934;2022-08-16T10:06:25;13.75;;;12.02;;
18732;SDS011;9495;51.210;2.934;2022-08-16T10:08:59;18.95;;;11.45;;
18732;SDS011;9495;51.210;2.934;2022-08-16T10:11:31;17.33;;;11.82;;
18732;SDS011;9495;51.210;2.934;2022-08-16T10:14:19;18.13;;;13.35;;
18732;SDS011;9495;51.210;2.934;2022-08-16T10:16:58;15.98;;;13.15;;
18732;SDS011;9495;51.210;2.934;2022-08-16T10:19:28;17.88;;;13.25;;
18732;SDS011;9495;51.210;2.934;2022-08-16T10:21:57;17.58;;;13.75;;
18732;SDS011;9495;51.210;2.934;2022-08-16T10:24:31;16.65;;;14.00;;
18732;SDS011;9495;51.210;2.934;2022-08-16T10:26:59;21.25;;;13.77;;
18732;SDS011;9495;51.210;2.934;2022-08-16T10:29:49;14.40;;;12.77;;
18732;SDS011;9495;51.210;2.934;2022-08-16T10:32:32;15.93;;;12.93;;
18732;SDS011;9495;51.210;2.934;2022-08-16T10:35:05;20.05;;;11.90;;
18732;SDS011;9495;51.210;2.934;2022-08-16T10:37:33;14.65;;;12.00;;
18732;SDS011;9495;51.210;2.934;2022-08-16T10:40:03;16.33;;;12.13;;
18732;SDS011;9495;51.210;2.934;2022-08-16T10:42:53;19.65;;;14.00;;
18732;SDS011;9495;51.210;2.934;2022-08-16T10:45:22;13.05;;;10.48;;
18732;SDS011;9495;51.210;2.934;2022-08-16T10:47:52;13.73;;;10.73;;
18732;SDS011;9495;51.210;2.934;2022-08-16T10:50:29;15.27;;;11.43;;
18732;SDS011;9495;51.210;2.934;2022-08-16T10:53:01;13.65;;;11.35;;
18732;SDS011;9495;51.210;2.934;2022-08-16T10:55:33;18.08;;;10.18;;
18732;SDS011;9495;51.210;2.934;2022-08-16T10:58:10;11.45;;;8.20;;
18732;SDS011;9495;51.210;2.934;2022-08-16T11:00:44;14.93;;;9.15;;
18732;SDS011;9495;51.210;2.934;2022-08-16T11:03:13;9.95;;;8.50;;
18732;SDS011;9495;51.210;2.934;2022-08-16T11:06:03;9.13;;;7.72;;
18732;SDS011;9495;51.210;2.934;2022-08-16T11:08:37;18.55;;;9.48;;
18732;SDS011;9495;51.210;2.934;2022-08-16T11:11:11;11.68;;;8.95;;
18732;SDS011;9495;51.210;2.934;2022-08-16T11:13:45;11.23;;;8.85;;
18732;SDS011;9495;51.210;2.934;2022-08-16T11:16:26;11.80;;;7.82;;
18732;SDS011;9495;51.210;2.934;2022-08-16T11:19:15;12.27;;;6.63;;
18732;SDS011;9495;51.210;2.934;2022-08-16T11:21:44;13.15;;;6.32;;
18732;SDS011;9495;51.210;2.934;2022-08-16T11:24:32;10.48;;;6.60;;
18732;SDS011;9495;51.210;2.934;2022-08-16T11:27:09;8.82;;;6.50;;
18732;SDS011;9495;51.210;2.934;2022-08-16T11:29:50;10.05;;;5.40;;
18732;SDS011;9495;51.210;2.934;2022-08-16T11:32:23;8.93;;;6.15;;
18732;SDS011;9495;51.210;2.934;2022-08-16T11:34:57;7.35;;;5.60;;
18732;SDS011;9495;51.210;2.934;2022-08-16T11:37:40;6.65;;;4.90;;
18732;SDS011;9495;51.210;2.934;2022-08-16T11:40:30;9.13;;;4.82;;
18732;SDS011;9495;51.210;2.934;2022-08-16T11:43:06;10.55;;;6.43;;
18732;SDS011;9495;51.210;2.934;2022-08-16T11:45:35;16.17;;;11.02;;
18732;SDS011;9495;51.210;2.934;2022-08-16T11:48:09;13.98;;;10.90;;
18732;SDS011;9495;51.210;2.934;2022-08-16T11:50:39;16.15;;;10.65;;
18732;SDS011;9495;51.210;2.934;2022-08-16T11:53:09;13.48;;;10.50;;
18732;SDS011;9495;51.210;2.934;2022-08-16T11:55:40;18.25;;;11.13;;
18732;SDS011;9495;51.210;2.934;2022-08-16T11:58:09;16.92;;;12.18;;
18732;SDS011;9495;51.210;2.934;2022-08-16T12:00:40;14.65;;;11.63;;
18732;SDS011;9495;51.210;2.934;2022-08-16T12:03:18;17.02;;;13.80;;
18732;SDS011;9495;51.210;2.934;2022-08-16T12:06:02;13.20;;;11.90;;
18732;SDS011;9495;51.210;2.934;2022-08-16T12:08:50;18.20;;;12.30;;
18732;SDS011;9495;51.210;2.934;2022-08-16T12:11:20;13.63;;;9.77;;
18732;SDS011;9495;51.210;2.934;2022-08-16T12:13:52;13.35;;;10.57;;
18732;SDS011;9495;51.210;2.934;2022-08-16T12:16:21;14.85;;;10.95;;
18732;SDS011;9495;51.210;2.934;2022-08-16T12:18:57;17.15;;;10.48;;
18732;SDS011;9495;51.210;2.934;2022-08-16T12:21:26;12.18;;;8.77;;
18732;SDS011;9495;51.210;2.934;2022-08-16T12:24:14;10.40;;;8.40;;
18732;SDS011;9495;51.210;2.934;2022-08-16T12:26:43;9.63;;;7.38;;
18732;SDS011;9495;51.210;2.934;2022-08-16T12:29:11;10.40;;;7.45;;
18732;SDS011;9495;51.210;2.934;2022-08-16T12:31:40;14.13;;;7.65;;
18732;SDS011;9495;51.210;2.934;2022-08-16T12:34:30;11.02;;;7.30;;
18732;SDS011;9495;51.210;2.934;2022-08-16T12:37:00;9.52;;;7.00;;
18732;SDS011;9495;51.210;2.934;2022-08-16T12:39:36;12.63;;;7.63;;
18732;SDS011;9495;51.210;2.934;2022-08-16T12:42:16;10.52;;;7.88;;
18732;SDS011;9495;51.210;2.934;2022-08-16T12:44:59;11.75;;;7.68;;
18732;SDS011;9495;51.210;2.934;2022-08-16T12:47:28;14.40;;;9.73;;
18732;SDS011;9495;51.210;2.934;2022-08-16T12:50:15;15.93;;;10.43;;
18732;SDS011;9495;51.210;2.934;2022-08-16T12:52:43;15.63;;;11.65;;
18732;SDS011;9495;51.210;2.934;2022-08-16T12:55:18;24.00;;;12.40;;
18732;SDS011;9495;51.210;2.934;2022-08-16T12:57:48;15.27;;;11.98;;
18732;SDS011;9495;51.210;2.934;2022-08-16T13:00:24;18.23;;;11.43;;
18732;SDS011;9495;51.210;2.934;2022-08-16T13:03:00;24.00;;;12.82;;
18732;SDS011;9495;51.210;2.934;2022-08-16T13:05:34;19.08;;;13.13;;
18732;SDS011;9495;51.210;2.934;2022-08-16T13:08:19;20.75;;;13.52;;
18732;SDS011;9495;51.210;2.934;2022-08-16T13:10:52;22.35;;;13.85;;
18732;SDS011;9495;51.210;2.934;2022-08-16T13:13:22;20.95;;;13.68;;
18732;SDS011;9495;51.210;2.934;2022-08-16T13:15:52;15.60;;;11.90;;
18732;SDS011;9495;51.210;2.934;2022-08-16T13:18:30;16.77;;;10.32;;
18732;SDS011;9495;51.210;2.934;2022-08-16T13:21:02;21.27;;;14.43;;
18732;SDS011;9495;51.210;2.934;2022-08-16T13:23:31;22.40;;;15.02;;
18732;SDS011;9495;51.210;2.934;2022-08-16T13:26:01;23.15;;;16.30;;
18732;SDS011;9495;51.210;2.934;2022-08-16T13:28:30;20.00;;;17.23;;
18732;SDS011;9495;51.210;2.934;2022-08-16T13:30:59;23.35;;;16.70;;
18732;SDS011;9495;51.210;2.934;2022-08-16T13:33:29;21.75;;;16.52;;
18732;SDS011;9495;51.210;2.934;2022-08-16T13:36:05;21.70;;;15.18;;
18732;SDS011;9495;51.210;2.934;2022-08-16T13:38:51;20.92;;;14.80;;
18732;SDS011;9495;51.210;2.934;2022-08-16T13:41:20;18.70;;;15.35;;
18732;SDS011;9495;51.210;2.934;2022-08-16T13:43:48;18.63;;;14.32;;
18732;SDS011;9495;51.210;2.934;2022-08-16T13:46:23;23.10;;;14.82;;
18732;SDS011;9495;51.210;2.934;2022-08-16T13:48:51;17.63;;;11.00;;
18732;SDS011;9495;51.210;2.934;2022-08-16T13:51:21;17.10;;;14.57;;
18732;SDS011;9495;51.210;2.934;2022-08-16T13:53:55;15.10;;;12.70;;
18732;SDS011;9495;51.210;2.934;2022-08-16T13:56:30;20.10;;;13.95;;
18732;SDS011;9495;51.210;2.934;2022-08-16T13:59:04;17.42;;;13.25;;
18732;SDS011;9495;51.210;2.934;2022-08-16T14:01:47;17.83;;;12.98;;
18732;SDS011;9495;51.210;2.934;2022-08-16T14:04:21;17.58;;;14.02;;
18732;SDS011;9495;51.210;2.934;2022-08-16T14:06:53;18.92;;;11.45;;
18732;SDS011;9495;51.210;2.934;2022-08-16T14:09:23;17.50;;;11.30;;
18732;SDS011;9495;51.210;2.934;2022-08-16T14:11:53;21.50;;;13.48;;
18732;SDS011;9495;51.210;2.934;2022-08-16T14:14:22;17.08;;;12.48;;
18732;SDS011;9495;51.210;2.934;2022-08-16T14:16:54;12.52;;;11.13;;
18732;SDS011;9495;51.210;2.934;2022-08-16T14:19:23;14.80;;;9.93;;
18732;SDS011;9495;51.210;2.934;2022-08-16T14:21:56;13.43;;;9.68;;
18732;SDS011;9495;51.210;2.934;2022-08-16T14:24:41;16.85;;;10.73;;
18732;SDS011;9495;51.210;2.934;2022-08-16T14:27:12;15.75;;;10.10;;
18732;SDS011;9495;51.210;2.934;2022-08-16T14:29:42;13.93;;;10.60;;
18732;SDS011;9495;51.210;2.934;2022-08-16T14:32:15;16.13;;;10.93;;
18732;SDS011;9495;51.210;2.934;2022-08-16T14:34:59;12.30;;;10.75;;
18732;SDS011;9495;51.210;2.934;2022-08-16T14:37:30;15.93;;;10.70;;
18732;SDS011;9495;51.210;2.934;2022-08-16T14:39:59;17.70;;;11.88;;
18732;SDS011;9495;51.210;2.934;2022-08-16T14:42:29;27.60;;;13.30;;
18732;SDS011;9495;51.210;2.934;2022-08-16T14:45:02;22.42;;;13.13;;
18732;SDS011;9495;51.210;2.934;2022-08-16T14:47:32;17.77;;;13.70;;
18732;SDS011;9495;51.210;2.934;2022-08-16T14:50:03;17.30;;;14.68;;
18732;SDS011;9495;51.210;2.934;2022-08-16T14:52:34;21.35;;;15.73;;
18732;SDS011;9495;51.210;2.934;2022-08-16T14:55:21;19.30;;;14.80;;
18732;SDS011;9495;51.210;2.934;2022-08-16T14:57:51;23.75;;;13.70;;
18732;SDS011;9495;51.210;2.934;2022-08-16T15:00:20;17.40;;;11.95;;
18732;SDS011;9495;51.210;2.934;2022-08-16T15:03:06;18.00;;;13.63;;
18732;SDS011;9495;51.210;2.934;2022-08-16T15:05:36;18.33;;;13.20;;
18732;SDS011;9495;51.210;2.934;2022-08-16T15:08:08;26.20;;;17.15;;
18732;SDS011;9495;51.210;2.934;2022-08-16T15:10:37;26.77;;;17.48;;
18732;SDS011;9495;51.210;2.934;2022-08-16T15:13:11;31.05;;;19.52;;
18732;SDS011;9495;51.210;2.934;2022-08-16T15:15:41;30.48;;;20.90;;
18732;SDS011;9495;51.210;2.934;2022-08-16T15:18:22;33.58;;;21.95;;
18732;SDS011;9495;51.210;2.934;2022-08-16T15:20:56;36.65;;;22.92;;
18732;SDS011;9495;51.210;2.934;2022-08-16T15:23:26;31.17;;;20.92;;